Time;durP1;ratioP1;P1;durP2;ratioP2;P2;SDS_P1;SDS_P2;PMS_P1;PMS_P2;Temp;Humidity;BMP_temperature;BMP_pressure;BME280_temperature;BME280_humidity;BME280_pressure;Samples;Min_cycle;Max_cycle;Signal;HPM_P1;HPM_P2
2022/08/01 00:01:38;;;;;;;4.97;3.10;;;;;;;17.86;82.87;98495.38;5043527;28;20045;-69
2022/08/01 00:04:04;;;;;;;8.68;3.28;;;;;;;17.90;82.87;98492.47;5044574;28;20025;-69
2022/08/01 00:06:30;;;;;;;6.68;3.58;;;;;;;17.84;82.52;98491.94;5043368;28;20237;-69
2022/08/01 00:08:55;;;;;;;5.70;3.22;;;;;;;17.78;82.58;98486.91;5050509;28;20029;-69
2022/08/01 00:11:21;;;;;;;4.78;2.80;;;;;;;17.84;82.90;98487.47;5062679;28;20021;-69
2022/08/01 00:13:46;;;;;;;5.70;3.40;;;;;;;17.69;82.82;98480.25;5062165;28;20092;-69
2022/08/01 00:16:12;;;;;;;4.63;2.78;;;;;;;17.63;82.36;98487.69;5047076;28;20033;-69
2022/08/01 00:18:37;;;;;;;5.90;3.13;;;;;;;17.51;83.32;98488.28;5047053;28;20029;-69
2022/08/01 00:21:03;;;;;;;4.43;2.95;;;;;;;17.44;83.67;98492.19;5048124;28;20017;-69
2022/08/01 00:23:29;;;;;;;7.53;2.97;;;;;;;17.34;84.04;98485.56;5061121;28;20025;-69
2022/08/01 00:25:55;;;;;;;7.07;3.30;;;;;;;17.23;84.67;98489.59;5066306;28;20021;-69
2022/08/01 00:28:20;;;;;;;4.65;2.90;;;;;;;17.27;85.53;98491.19;5066058;28;20393;-69
2022/08/01 00:30:46;;;;;;;6.15;2.83;;;;;;;17.31;84.28;98497.22;5066126;28;20027;-69
2022/08/01 00:33:11;;;;;;;5.40;3.20;;;;;;;17.25;84.48;98497.50;5066164;28;20040;-69
2022/08/01 00:35:37;;;;;;;11.50;3.20;;;;;;;17.13;85.19;98498.97;5066077;28;20028;-69
2022/08/01 00:38:02;;;;;;;4.10;2.92;;;;;;;17.11;85.41;98495.50;5066062;28;20212;-69
2022/08/01 00:40:27;;;;;;;7.15;3.20;;;;;;;17.06;86.07;98500.16;5046854;28;20059;-69
2022/08/01 00:42:53;;;;;;;5.55;3.35;;;;;;;17.08;86.21;98495.66;5046563;28;20044;-69
2022/08/01 00:45:18;;;;;;;4.43;2.88;;;;;;;16.93;86.44;98491.03;5046555;28;20029;-69
2022/08/01 00:47:44;;;;;;;3.70;2.53;;;;;;;16.88;86.61;98490.41;5046517;28;20079;-69
2022/08/01 00:50:10;;;;;;;7.38;3.40;;;;;;;16.81;87.06;98486.28;5046400;28;20033;-69
2022/08/01 00:52:36;;;;;;;5.00;2.75;;;;;;;16.76;87.21;98476.81;5049684;28;20074;-69
2022/08/01 00:55:02;;;;;;;4.97;2.88;;;;;;;16.60;87.29;98481.97;5062008;28;20036;-69
2022/08/01 00:57:29;;;;;;;5.70;3.22;;;;;;;16.57;87.81;98481.25;5065659;28;20092;-69
2022/08/01 00:59:54;;;;;;;5.72;3.13;;;;;;;16.54;88.33;98476.94;5065913;28;20091;-69
2022/08/01 01:02:20;;;;;;;6.03;3.42;;;;;;;16.59;88.47;98474.97;5065523;28;20059;-69
2022/08/01 01:04:45;;;;;;;5.10;3.10;;;;;;;16.47;88.50;98470.19;5065507;28;20051;-69
2022/08/01 01:07:21;;;;;;;8.07;3.30;;;;;;;16.39;88.77;98472.28;5065272;28;20021;-69
2022/08/01 01:10:00;;;;;;;4.57;2.90;;;;;;;16.40;89.00;98468.72;5063892;28;20028;-69
2022/08/01 01:12:37;;;;;;;4.35;2.83;;;;;;;16.37;88.87;98474.16;5057111;28;20025;-69
2022/08/01 01:15:07;;;;;;;6.00;3.30;;;;;;;16.15;90.05;98473.41;5065430;28;20025;-69
2022/08/01 01:17:58;;;;;;;4.13;2.88;;;;;;;16.13;90.50;98480.56;5065383;28;20032;-69
2022/08/01 01:20:30;;;;;;;5.85;3.25;;;;;;;16.04;90.58;98475.63;5062721;28;20036;-69
2022/08/01 01:23:19;;;;;;;6.95;3.63;;;;;;;16.03;91.16;98475.72;5063644;28;20029;-69
2022/08/01 01:26:00;;;;;;;8.77;3.40;;;;;;;16.00;90.96;98471.41;5064191;28;20024;-68
2022/08/01 01:28:50;;;;;;;5.15;3.00;;;;;;;15.83;91.29;98479.25;5064943;28;20044;-68
2022/08/01 01:31:21;;;;;;;4.65;3.15;;;;;;;15.70;91.56;98480.69;5046205;28;20097;-68
2022/08/01 01:33:48;;;;;;;5.40;2.88;;;;;;;15.73;91.62;98479.69;5045622;28;20059;-68
2022/08/01 01:36:16;;;;;;;5.80;3.63;;;;;;;15.68;92.69;98477.22;5045624;28;20053;-68
2022/08/01 01:38:44;;;;;;;5.30;3.20;;;;;;;15.72;92.10;98477.97;5045531;28;20083;-68
2022/08/01 01:41:15;;;;;;;9.55;3.58;;;;;;;15.67;92.60;98475.50;5045484;28;20032;-68
2022/08/01 01:43:42;;;;;;;5.20;3.13;;;;;;;15.54;93.68;98474.31;5057103;28;20025;-68
2022/08/01 01:46:10;;;;;;;5.60;3.10;;;;;;;15.64;94.29;98477.41;5061505;28;20029;-68
2022/08/01 01:48:37;;;;;;;6.30;3.10;;;;;;;15.60;93.69;98468.72;5064705;28;20021;-68
2022/08/01 01:51:03;;;;;;;6.22;2.95;;;;;;;15.66;93.91;98478.22;5064323;28;20025;-68
2022/08/01 01:53:32;;;;;;;4.63;3.05;;;;;;;15.59;94.24;98476.72;5056045;28;20298;-68
2022/08/01 01:56:00;;;;;;;9.07;3.10;;;;;;;15.52;94.49;98484.09;5045160;28;20071;-68
2022/08/01 01:58:27;;;;;;;7.50;3.33;;;;;;;15.61;94.73;98481.06;5045131;28;20028;-68
2022/08/01 02:00:56;;;;;;;5.38;3.17;;;;;;;15.62;94.77;98474.81;5045040;28;20033;-68
2022/08/01 02:03:23;;;;;;;5.70;3.25;;;;;;;15.61;94.81;98475.75;5051100;28;20020;-68
2022/08/01 02:05:52;;;;;;;6.13;3.22;;;;;;;15.51;94.63;98469.13;5063394;28;20028;-68
2022/08/01 02:08:17;;;;;;;5.03;3.17;;;;;;;15.47;94.36;98480.75;5046179;28;20029;-68
2022/08/01 02:13:32;;;;;;;7.40;3.40;;;;;;;15.43;95.25;98476.50;5063997;28;20089;-68
2022/08/01 02:15:58;;;;;;;4.97;2.83;;;;;;;15.38;95.12;98481.16;5064174;28;20032;-68
2022/08/01 02:18:24;;;;;;;5.65;3.40;;;;;;;15.46;95.65;98476.38;5063896;28;20025;-68
2022/08/01 02:20:52;;;;;;;5.97;3.00;;;;;;;15.40;95.62;98481.09;5052509;28;20025;-68
2022/08/01 02:23:18;;;;;;;4.68;3.10;;;;;;;15.36;95.43;98482.97;5047396;28;20335;-68
2022/08/01 02:25:48;;;;;;;6.47;3.40;;;;;;;15.32;95.68;98483.16;5058537;28;20033;-68
2022/08/01 02:28:27;;;;;;;4.25;3.00;;;;;;;15.28;95.72;98485.06;5044345;28;20269;-68
2022/08/01 02:30:56;;;;;;;5.18;3.00;;;;;;;15.44;96.58;98488.84;5064002;28;20021;-68
2022/08/01 02:33:26;;;;;;;6.07;3.17;;;;;;;15.40;96.11;98481.94;5063666;28;20024;-68
2022/08/01 02:35:56;;;;;;;5.30;2.97;;;;;;;15.49;96.20;98486.88;5063611;28;20017;-68
2022/08/01 02:38:25;;;;;;;3.92;3.05;;;;;;;15.42;95.55;98480.09;5055247;28;20035;-68
2022/08/01 02:40:54;;;;;;;5.90;3.35;;;;;;;15.41;95.43;98482.81;5063718;28;20083;-68
2022/08/01 02:43:23;;;;;;;6.85;3.10;;;;;;;15.45;96.00;98487.06;5050478;28;20025;-68
2022/08/01 02:45:54;;;;;;;4.38;2.95;;;;;;;15.40;95.31;98481.94;5063944;28;20028;-68
2022/08/01 02:48:21;;;;;;;7.38;3.55;;;;;;;15.39;95.42;98489.97;5064141;28;20021;-68
2022/08/01 02:50:49;;;;;;;5.00;3.03;;;;;;;15.38;95.45;98486.47;5064041;28;20029;-68
2022/08/01 02:53:17;;;;;;;4.60;3.30;;;;;;;15.35;95.62;98483.91;5064351;28;20024;-68
2022/08/01 02:55:47;;;;;;;8.25;2.90;;;;;;;15.43;95.83;98486.25;5054864;28;20025;-68
2022/08/01 02:58:15;;;;;;;5.65;3.10;;;;;;;15.45;96.37;98487.06;5055474;28;20266;-68
2022/08/01 03:00:43;;;;;;;6.03;3.58;;;;;;;15.41;96.34;98493.44;5063924;28;20039;-68
2022/08/01 03:03:09;;;;;;;7.30;3.28;;;;;;;15.42;96.53;98480.09;5063524;28;20067;-68
2022/08/01 03:05:36;;;;;;;5.45;3.08;;;;;;;15.32;96.00;98484.03;5054997;28;20033;-68
2022/08/01 03:08:02;;;;;;;9.85;3.28;;;;;;;15.28;96.58;98487.69;5063674;28;20021;-68
2022/08/01 03:10:29;;;;;;;7.55;3.28;;;;;;;15.28;96.82;98482.41;5061703;28;20220;-68
2022/08/01 03:12:58;;;;;;;5.10;3.33;;;;;;;15.19;96.57;98491.59;5047904;28;20021;-68
2022/08/01 03:15:26;;;;;;;6.63;3.30;;;;;;;15.28;97.63;98493.00;5047293;28;20029;-68
2022/08/01 03:17:54;;;;;;;4.38;3.10;;;;;;;15.04;96.52;98483.41;5051900;28;20024;-68
2022/08/01 03:20:24;;;;;;;6.38;3.10;;;;;;;15.03;96.99;98497.59;5058389;28;20024;-68
2022/08/01 03:22:52;;;;;;;7.40;3.55;;;;;;;15.00;97.87;98492.41;5048176;28;20029;-68
2022/08/01 03:25:19;;;;;;;12.93;3.40;;;;;;;14.99;98.26;98493.31;5043834;28;20025;-68
2022/08/01 03:27:51;;;;;;;11.82;3.38;;;;;;;14.93;98.19;98491.75;5043660;28;20048;-68
2022/08/01 03:30:17;;;;;;;8.25;3.55;;;;;;;15.02;98.53;98506.44;5043840;28;20096;-68
2022/08/01 03:32:42;;;;;;;8.30;3.97;;;;;;;14.99;98.50;98506.56;5060351;28;20044;-68
2022/08/01 03:35:08;;;;;;;6.88;3.47;;;;;;;15.05;98.98;98501.00;5063127;28;20221;-68
2022/08/01 03:37:42;;;;;;;10.63;3.70;;;;;;;15.08;98.60;98500.91;5063132;28;20025;-68
2022/08/01 03:40:18;;;;;;;5.85;3.47;;;;;;;15.05;98.73;98506.31;5062849;28;20021;-68
2022/08/01 03:42:46;;;;;;;5.53;3.35;;;;;;;15.11;98.93;98512.25;5046215;28;20025;-68
2022/08/01 03:45:21;;;;;;;6.65;3.35;;;;;;;15.10;98.91;98509.66;5055220;28;20102;-68
2022/08/01 03:47:47;;;;;;;7.05;4.00;;;;;;;15.14;99.14;98505.97;5063466;28;20017;-68
2022/08/01 03:50:16;;;;;;;4.03;3.15;;;;;;;15.09;98.51;98498.19;5066523;28;20029;-68
2022/08/01 03:52:45;;;;;;;7.30;3.67;;;;;;;15.01;99.33;98499.41;5059246;28;20032;-68
2022/08/01 03:55:11;;;;;;;4.93;3.30;;;;;;;15.05;98.96;98511.63;5066928;28;20028;-68
2022/08/01 03:57:37;;;;;;;14.10;4.53;;;;;;;15.07;98.87;98510.63;5066581;28;20029;-68
2022/08/01 04:00:08;;;;;;;6.47;3.40;;;;;;;15.05;99.77;98506.31;5066750;28;20029;-68
2022/08/01 04:02:34;;;;;;;4.95;3.10;;;;;;;15.10;100.00;98505.22;5047692;28;20328;-68
2022/08/01 04:05:01;;;;;;;6.38;3.20;;;;;;;15.22;100.00;98509.16;5047291;28;20040;-68
2022/08/01 04:07:31;;;;;;;5.25;3.40;;;;;;;15.20;99.83;98516.31;5047271;28;20040;-68
2022/08/01 04:09:57;;;;;;;6.78;3.83;;;;;;;15.32;99.44;98510.53;5047131;28;20035;-68
2022/08/01 04:12:22;;;;;;;6.63;3.40;;;;;;;15.26;99.18;98505.47;5063594;28;20032;-68
2022/08/01 04:14:48;;;;;;;4.13;3.10;;;;;;;15.30;99.09;98507.09;5047118;28;20321;-68
2022/08/01 04:17:15;;;;;;;9.25;3.80;;;;;;;15.35;99.06;98504.25;5064283;28;20020;-68
2022/08/01 04:19:41;;;;;;;6.35;3.63;;;;;;;15.36;98.84;98511.25;5066473;28;20029;-68
2022/08/01 04:22:08;;;;;;;5.32;3.33;;;;;;;15.43;98.60;98521.59;5059209;28;20279;-68
2022/08/01 04:24:36;;;;;;;6.68;3.53;;;;;;;15.54;99.40;98524.69;5046888;28;20264;-68
2022/08/01 04:27:03;;;;;;;5.78;3.50;;;;;;;15.68;99.29;98519.69;5061691;28;20092;-68
2022/08/01 04:29:31;;;;;;;3.25;2.60;;;;;;;15.61;98.24;98520.88;5065971;28;20033;-68
2022/08/01 04:32:00;;;;;;;6.38;3.30;;;;;;;15.62;98.35;98527.88;5066090;28;20283;-68
2022/08/01 04:34:28;;;;;;;9.35;3.72;;;;;;;15.74;97.84;98530.03;5066130;28;20071;-68
2022/08/01 04:36:55;;;;;;;11.55;3.45;;;;;;;15.85;97.62;98527.78;5052566;28;20025;-68
2022/08/01 04:39:27;;;;;;;5.43;3.50;;;;;;;15.96;97.48;98528.22;5046902;28;20032;-68
2022/08/01 04:41:56;;;;;;;6.53;2.95;;;;;;;16.12;96.87;98526.63;5046867;28;20055;-68
2022/08/01 04:44:22;;;;;;;10.55;3.00;;;;;;;16.32;96.22;98529.28;5060193;28;20033;-68
2022/08/01 04:46:49;;;;;;;5.00;3.00;;;;;;;16.50;95.59;98538.25;5050133;28;20052;-68
2022/08/01 04:49:16;;;;;;;4.32;3.05;;;;;;;16.68;96.22;98532.97;5046485;28;20021;-68
2022/08/01 04:51:57;;;;;;;8.85;3.20;;;;;;;16.86;94.51;98542.78;5046370;28;20021;-68
2022/08/01 04:54:29;;;;;;;5.53;3.22;;;;;;;16.99;93.96;98549.25;5047489;28;20040;-68
2022/08/01 04:56:59;;;;;;;5.95;2.88;;;;;;;17.31;92.47;98544.22;5046329;28;20025;-68
2022/08/01 04:59:40;;;;;;;5.70;2.95;;;;;;;17.53;91.10;98542.31;5046467;28;20033;-68
2022/08/01 05:02:20;;;;;;;4.97;2.97;;;;;;;17.93;90.85;98552.69;5046330;28;20257;-68
2022/08/01 05:04:46;;;;;;;7.85;2.67;;;;;;;19.20;85.71;98555.69;5055657;28;20051;-68
2022/08/01 05:07:12;;;;;;;5.10;2.85;;;;;;;19.21;84.92;98550.28;5065497;28;20376;-68
2022/08/01 05:09:41;;;;;;;6.03;2.90;;;;;;;18.91;84.99;98537.75;5065532;28;20092;-68
2022/08/01 05:12:07;;;;;;;4.70;2.97;;;;;;;19.89;82.71;98551.75;5046234;28;20313;-68
2022/08/01 05:14:33;;;;;;;4.28;2.58;;;;;;;21.23;77.54;98552.44;5053618;28;20028;-68
2022/08/01 05:16:59;;;;;;;7.22;2.17;;;;;;;21.55;74.32;98558.44;5065042;28;20033;-68
2022/08/01 05:19:26;;;;;;;5.53;2.78;;;;;;;20.66;76.50;98539.97;5065590;28;20024;-68
2022/08/01 05:21:52;;;;;;;4.07;2.83;;;;;;;20.02;80.09;98542.06;5065251;28;20205;-68
2022/08/01 05:24:18;;;;;;;7.38;2.47;;;;;;;19.79;81.60;98539.88;5060105;28;20047;-68
2022/08/01 05:26:43;;;;;;;3.13;2.45;;;;;;;19.43;83.47;98539.31;5045764;28;20025;-68
2022/08/01 05:29:08;;;;;;;4.53;2.35;;;;;;;19.28;84.65;98548.19;5045608;28;20078;-68
2022/08/01 05:31:34;;;;;;;4.38;2.53;;;;;;;19.26;84.34;98550.06;5045582;28;20031;-68
2022/08/01 05:34:03;;;;;;;3.42;2.47;;;;;;;19.25;84.88;98554.53;5046752;28;20029;-68
2022/08/01 05:36:29;;;;;;;8.13;2.90;;;;;;;19.17;85.40;98555.88;5045546;28;20029;-68
2022/08/01 05:38:54;;;;;;;3.63;2.80;;;;;;;19.31;85.26;98553.34;5045528;28;20040;-68
2022/08/01 05:41:20;;;;;;;6.28;2.35;;;;;;;19.53;84.21;98556.53;5045464;28;20021;-68
2022/08/01 05:43:45;;;;;;;6.43;2.70;;;;;;;19.65;83.19;98563.84;5060604;28;20048;-68
2022/08/01 05:46:11;;;;;;;11.25;2.53;;;;;;;19.59;82.85;98564.22;5064767;28;20313;-68
2022/08/01 05:48:36;;;;;;;4.50;2.53;;;;;;;19.43;83.65;98558.00;5064820;28;20021;-68
2022/08/01 05:51:03;;;;;;;6.43;2.60;;;;;;;19.63;83.39;98571.09;5064618;28;20029;-68
2022/08/01 05:53:28;;;;;;;3.22;2.47;;;;;;;19.58;83.59;98573.16;5054391;28;20032;-68
2022/08/01 05:55:54;;;;;;;5.68;2.65;;;;;;;19.65;83.69;98569.16;5058263;28;20024;-68
2022/08/01 05:58:19;;;;;;;4.38;2.90;;;;;;;19.67;83.86;98579.78;5062928;28;20025;-68
2022/08/01 06:00:45;;;;;;;6.25;3.00;;;;;;;19.56;84.95;98585.75;5064533;28;20025;-68
2022/08/01 06:03:11;;;;;;;10.65;2.53;;;;;;;19.62;84.96;98574.72;5056799;28;20053;-68
2022/08/01 06:05:36;;;;;;;3.65;2.50;;;;;;;19.78;84.00;98580.91;5045061;28;20036;-68
2022/08/01 06:08:02;;;;;;;6.68;2.80;;;;;;;19.76;83.98;98581.94;5044966;28;20096;-68
2022/08/01 06:10:27;;;;;;;6.10;2.42;;;;;;;19.73;85.39;98585.63;5044569;28;20036;-68
2022/08/01 06:12:53;;;;;;;4.13;2.67;;;;;;;19.83;84.48;98580.63;5049634;28;20021;-68
2022/08/01 06:15:18;;;;;;;2.85;2.25;;;;;;;19.81;83.99;98586.09;5056172;28;20095;-68
2022/08/01 06:17:44;;;;;;;6.25;2.30;;;;;;;19.82;84.95;98584.25;5044862;28;20348;-68
2022/08/01 06:20:10;;;;;;;3.28;2.40;;;;;;;19.89;84.70;98583.81;5045014;28;20089;-68
2022/08/01 06:22:35;;;;;;;4.47;2.47;;;;;;;20.01;84.51;98588.47;5050983;28;20044;-68
2022/08/01 06:25:01;;;;;;;3.97;2.55;;;;;;;20.20;84.51;98591.81;5062439;28;20025;-68
2022/08/01 06:27:26;;;;;;;6.32;2.60;;;;;;;20.35;84.63;98593.56;5063550;28;20048;-68
2022/08/01 06:29:55;;;;;;;4.60;2.40;;;;;;;20.46;84.00;98596.47;5064234;28;20031;-68
2022/08/01 06:32:22;;;;;;;12.00;2.28;;;;;;;20.57;83.03;98591.34;5062449;28;20033;-68
2022/08/01 06:34:48;;;;;;;5.18;2.58;;;;;;;20.77;82.21;98596.38;5064147;28;20339;-68
2022/08/01 06:37:14;;;;;;;5.72;2.28;;;;;;;21.00;82.52;98590.50;5063603;28;20025;-68
2022/08/01 06:39:39;;;;;;;6.05;2.65;;;;;;;21.20;80.56;98592.78;5064046;28;20017;-68
2022/08/01 06:42:05;;;;;;;3.88;2.38;;;;;;;21.40;79.05;98596.91;5057208;28;20267;-68
2022/08/01 06:44:30;;;;;;;2.47;1.98;;;;;;;21.63;78.28;98592.72;5063061;28;20047;-68
2022/08/01 06:46:58;;;;;;;4.70;2.30;;;;;;;21.80;76.98;98598.75;5061858;28;20028;-68
2022/08/01 06:49:23;;;;;;;6.85;2.70;;;;;;;21.99;77.28;98601.13;5043291;28;20060;-68
2022/08/01 06:51:49;;;;;;;3.25;2.08;;;;;;;22.14;75.47;98600.06;5043181;28;20029;-68
2022/08/01 06:54:15;;;;;;;6.03;2.38;;;;;;;22.17;75.28;98603.44;5059083;28;20032;-68
2022/08/01 06:56:41;;;;;;;6.03;2.28;;;;;;;22.27;74.55;98607.22;5060175;28;20047;-68
2022/08/01 06:59:06;;;;;;;4.75;2.20;;;;;;;22.19;74.55;98608.69;5060426;28;20328;-68
2022/08/01 07:01:32;;;;;;;6.25;1.98;;;;;;;22.07;75.35;98598.78;5053076;28;20101;-68
2022/08/01 07:03:57;;;;;;;5.63;2.22;;;;;;;22.05;75.38;98604.22;5044462;28;20048;-68
2022/08/01 07:06:24;;;;;;;3.47;2.00;;;;;;;22.02;76.12;98600.91;5045967;28;20029;-68
2022/08/01 07:08:50;;;;;;;6.63;2.45;;;;;;;22.02;75.63;98599.06;5053865;28;20055;-68
2022/08/01 07:11:15;;;;;;;7.53;2.45;;;;;;;22.19;74.96;98604.19;5054239;28;20029;-68
2022/08/01 07:13:41;;;;;;;5.20;2.10;;;;;;;22.67;73.70;98594.69;5044622;28;20021;-68
2022/08/01 07:16:06;;;;;;;3.83;2.17;;;;;;;23.06;71.94;98591.91;5043928;28;20033;-68
2022/08/01 07:18:31;;;;;;;4.00;2.08;;;;;;;23.18;70.80;98599.13;5043901;28;20052;-68
2022/08/01 07:20:57;;;;;;;5.88;2.10;;;;;;;23.45;69.72;98591.81;5043896;28;20028;-69
2022/08/01 07:23:22;;;;;;;3.58;2.33;;;;;;;23.62;69.23;98596.84;5046091;28;20245;-69
2022/08/01 07:25:49;;;;;;;5.20;2.42;;;;;;;23.78;68.93;98592.06;5047985;28;20029;-68
2022/08/01 07:28:15;;;;;;;5.90;2.25;;;;;;;24.17;68.01;98609.81;5047716;28;20112;-67
2022/08/01 07:30:41;;;;;;;6.18;2.08;;;;;;;25.85;62.62;98611.81;5060172;28;20232;-69
2022/08/01 07:33:07;;;;;;;10.45;1.90;;;;;;;27.11;58.08;98614.53;5067791;28;20052;-68
2022/08/01 07:35:33;;;;;;;2.78;1.52;;;;;;;27.11;56.87;98604.59;5067767;28;20025;-67
2022/08/01 07:37:58;;;;;;;5.13;1.85;;;;;;;26.15;59.76;98598.50;5067755;28;20092;-68
2022/08/01 07:40:23;;;;;;;5.60;2.13;;;;;;;26.25;60.58;98599.47;5065590;28;20078;-68
2022/08/01 07:42:49;;;;;;;5.07;1.92;;;;;;;26.97;57.61;98595.97;5067709;28;20067;-68
2022/08/01 07:45:15;;;;;;;3.63;1.75;;;;;;;28.71;54.32;98609.88;5067678;28;20048;-68
2022/08/01 07:47:40;;;;;;;5.20;2.17;;;;;;;30.07;50.12;98618.38;5067324;28;20322;-67
2022/08/01 07:50:07;;;;;;;3.22;1.67;;;;;;;30.87;47.78;98619.28;5058726;28;20029;-67
2022/08/01 07:52:32;;;;;;;4.70;1.38;;;;;;;31.53;46.46;98617.78;5047658;28;20073;-68
2022/08/01 07:54:58;;;;;;;2.60;1.23;;;;;;;30.78;46.21;98617.53;5047470;28;20026;-68
2022/08/01 07:57:24;;;;;;;2.67;1.20;;;;;;;31.03;46.70;98605.81;5047685;28;20049;-68
2022/08/01 07:59:50;;;;;;;1.00;0.77;;;;;;;30.61;47.80;98612.88;5053371;28;20249;-68
2022/08/01 08:02:15;;;;;;;1.00;0.60;;;;;;;30.75;47.70;98620.56;5067335;28;20067;-68
2022/08/01 08:04:41;;;;;;;0.73;0.63;;;;;;;29.83;48.15;98605.34;5065252;28;20036;-68
2022/08/01 08:07:07;;;;;;;0.88;0.30;;;;;;;29.94;48.56;98607.03;5066085;28;20221;-68
2022/08/01 08:09:32;;;;;;;1.73;0.52;;;;;;;30.77;47.08;98602.19;5063305;28;20109;-68
2022/08/01 08:11:57;;;;;;;3.83;0.82;;;;;;;30.65;46.23;98609.72;5067007;28;20071;-68
2022/08/01 08:14:23;;;;;;;8.70;0.70;;;;;;;30.54;46.90;98601.81;5067101;28;20045;-68
2022/08/01 08:16:49;;;;;;;3.22;0.90;;;;;;;31.78;45.48;98614.16;5066494;28;20025;-68
2022/08/01 08:19:15;;;;;;;1.10;0.90;;;;;;;32.03;43.41;98605.13;5066969;28;20029;-68
2022/08/01 08:21:40;;;;;;;1.83;0.80;;;;;;;32.42;42.75;98605.44;5067057;28;20020;-68
2022/08/01 08:24:19;;;;;;;0.80;0.70;;;;;;;31.71;42.61;98594.06;5066925;28;20240;-68
2022/08/01 08:26:48;;;;;;;1.25;0.70;;;;;;;31.97;42.97;98600.34;5047778;28;20056;-68
2022/08/01 08:29:14;;;;;;;1.20;0.70;;;;;;;33.05;42.22;98612.88;5047120;28;20356;-68
2022/08/01 08:31:40;;;;;;;2.42;0.77;;;;;;;33.74;40.98;98612.28;5046694;28;20092;-68
2022/08/01 08:34:05;;;;;;;2.20;0.73;;;;;;;34.06;40.54;98606.72;5046578;28;20024;-68
2022/08/01 08:36:30;;;;;;;4.53;0.80;;;;;;;32.89;40.20;98588.31;5046963;28;20240;-68
2022/08/01 08:38:56;;;;;;;1.20;0.60;;;;;;;31.47;42.67;98583.03;5046713;28;20333;-68
2022/08/01 08:41:24;;;;;;;1.52;0.73;;;;;;;29.74;47.34;98567.44;5065801;28;20043;-68
2022/08/01 08:43:50;;;;;;;1.08;0.75;;;;;;;28.38;49.85;98569.63;5066543;28;20324;-68
2022/08/01 08:46:16;;;;;;;1.98;0.80;;;;;;;30.24;46.88;98587.75;5066566;28;20041;-67
2022/08/01 08:48:42;;;;;;;7.35;0.80;;;;;;;31.82;44.45;98595.69;5055283;28;20025;-67
2022/08/01 08:51:10;;;;;;;1.33;0.93;;;;;;;31.93;42.97;98587.22;5063428;28;20355;-68
2022/08/01 08:53:42;;;;;;;2.30;0.90;;;;;;;30.84;45.08;98576.97;5066595;28;20107;-68
2022/08/01 08:56:09;;;;;;;2.92;0.80;;;;;;;32.06;43.71;98602.06;5066590;28;20075;-67
2022/08/01 08:58:37;;;;;;;2.47;0.82;;;;;;;32.58;41.67;98595.41;5066267;28;20099;-67
2022/08/01 09:01:05;;;;;;;4.97;1.10;;;;;;;32.70;42.33;98599.53;5050003;28;20022;-69
2022/08/01 09:03:30;;;;;;;1.52;0.90;;;;;;;33.22;41.06;98594.63;5046246;28;20093;-69
2022/08/01 09:05:56;;;;;;;2.17;0.70;;;;;;;31.73;42.46;98591.19;5046161;28;20021;-70
2022/08/01 09:08:21;;;;;;;4.38;1.30;;;;;;;28.96;48.42;98568.63;5046200;28;20037;-69
2022/08/01 09:10:47;;;;;;;4.85;1.23;;;;;;;28.53;49.26;98565.53;5059605;28;20025;-69
2022/08/01 09:13:14;;;;;;;3.45;1.25;;;;;;;28.25;51.42;98569.03;5066027;28;20307;-69
2022/08/01 09:15:45;;;;;;;3.47;1.50;;;;;;;28.74;50.27;98577.09;5066009;28;20024;-68
2022/08/01 09:18:44;;;;;;;3.85;1.13;;;;;;;28.90;50.36;98577.34;5065894;28;20066;-68
2022/08/01 09:21:21;;;;;;;3.85;1.92;;;;;;;29.48;49.44;98585.38;5044251;28;20105;-68
2022/08/01 09:23:52;;;;;;;6.00;1.80;;;;;;;30.89;47.01;98590.09;5046097;28;20029;-68
2022/08/01 09:26:36;;;;;;;3.97;1.40;;;;;;;30.24;46.83;98585.03;5045833;28;20017;-69
2022/08/01 09:29:06;;;;;;;4.53;2.10;;;;;;;28.37;50.15;98562.50;5046739;28;20049;-70
2022/08/01 09:31:41;;;;;;;2.45;1.23;;;;;;;27.70;52.58;98566.91;5065598;28;20205;-69
2022/08/01 09:34:08;;;;;;;2.83;1.30;;;;;;;27.11;53.96;98557.78;5065849;28;20024;-69
2022/08/01 09:36:51;;;;;;;2.90;1.60;;;;;;;27.25;54.04;98569.13;5065535;28;20086;-69
2022/08/01 09:39:19;;;;;;;2.72;1.25;;;;;;;27.30;53.45;98563.31;5062040;28;20013;-68
2022/08/01 09:41:44;;;;;;;5.35;1.40;;;;;;;27.42;53.51;98564.94;5045758;28;20017;-70
2022/08/01 09:44:10;;;;;;;3.58;1.90;;;;;;;27.06;54.01;98554.66;5045541;28;20087;-70
2022/08/01 09:46:36;;;;;;;5.90;1.40;;;;;;;26.96;54.66;98553.75;5053006;28;20017;-69
2022/08/01 09:49:06;;;;;;;3.03;1.65;;;;;;;26.96;54.33;98559.16;5061182;28;20058;-70
2022/08/01 09:51:36;;;;;;;2.53;1.45;;;;;;;26.70;56.33;98560.53;5055578;28;20369;-69
2022/08/01 09:54:06;;;;;;;4.23;1.30;;;;;;;27.58;53.62;98575.28;5055411;28;20033;-69
2022/08/01 09:56:37;;;;;;;2.58;1.42;;;;;;;29.18;51.40;98597.28;5065162;28;20441;-69
2022/08/01 09:59:03;;;;;;;3.75;1.33;;;;;;;28.64;50.11;98576.25;5056647;28;20025;-69
2022/08/01 10:01:42;;;;;;;2.97;1.23;;;;;;;28.58;50.09;98571.38;5064348;28;20281;-71
2022/08/01 10:04:12;;;;;;;3.10;1.27;;;;;;;28.84;50.44;98577.91;5053616;28;20070;-70
2022/08/01 10:06:39;;;;;;;2.28;1.38;;;;;;;28.75;50.40;98577.91;5050316;28;20036;-70
2022/08/01 10:09:04;;;;;;;4.70;1.05;;;;;;;28.55;50.63;98576.22;5043372;28;20029;-70
2022/08/01 10:11:32;;;;;;;2.38;1.00;;;;;;;29.10;50.10;98580.88;5043888;28;20032;-70
2022/08/01 10:13:59;;;;;;;3.13;1.35;;;;;;;28.13;51.46;98575.63;5044201;28;20094;-70
2022/08/01 10:16:26;;;;;;;3.70;1.13;;;;;;;27.68;51.55;98563.47;5063155;28;20028;-70
2022/08/01 10:18:53;;;;;;;4.07;1.00;;;;;;;27.38;53.43;98559.94;5063089;28;20096;-70
2022/08/01 10:21:20;;;;;;;2.13;0.93;;;;;;;27.10;53.72;98566.91;5043367;28;20318;-69
2022/08/01 10:23:46;;;;;;;4.13;1.13;;;;;;;27.18;53.23;98564.41;5043741;28;20037;-69
2022/08/01 10:26:12;;;;;;;11.57;1.38;;;;;;;27.79;53.47;98576.03;5043727;28;20025;-69
2022/08/01 10:28:38;;;;;;;1.63;0.90;;;;;;;27.83;51.57;98562.09;5043441;28;20087;-69
2022/08/01 10:31:03;;;;;;;1.80;1.00;;;;;;;27.75;52.88;98570.06;5061719;28;20271;-69
2022/08/01 10:33:30;;;;;;;2.47;1.00;;;;;;;28.08;52.36;98574.28;5063140;28;20095;-69
2022/08/01 10:35:56;;;;;;;2.65;1.00;;;;;;;28.32;50.72;98578.31;5063730;28;20354;-69
2022/08/01 10:38:23;;;;;;;4.47;1.40;;;;;;;28.36;51.06;98571.63;5063440;28;20071;-69
2022/08/01 10:40:49;;;;;;;2.25;1.00;;;;;;;28.77;50.89;98570.50;5047636;28;20316;-69
2022/08/01 10:43:16;;;;;;;5.68;1.00;;;;;;;28.74;50.80;98566.25;5043452;28;20052;-69
2022/08/01 10:45:43;;;;;;;1.85;1.02;;;;;;;28.33;51.37;98558.38;5043372;28;20352;-69
2022/08/01 10:48:14;;;;;;;3.65;1.00;;;;;;;29.43;49.47;98574.09;5044397;28;20033;-69
2022/08/01 10:50:43;;;;;;;2.60;1.35;;;;;;;28.85;50.38;98552.53;5063190;28;20025;-69
2022/08/01 10:53:14;;;;;;;5.65;1.60;;;;;;;28.39;50.59;98548.84;5054321;28;20220;-69
2022/08/01 10:55:45;;;;;;;1.95;1.05;;;;;;;27.91;51.60;98548.78;5058775;28;20087;-69
2022/08/01 10:58:11;;;;;;;8.38;1.25;;;;;;;27.57;53.07;98544.66;5062558;28;20332;-69
2022/08/01 11:00:36;;;;;;;2.45;1.10;;;;;;;27.42;53.17;98546.03;5061931;28;20082;-69
2022/08/01 11:03:03;;;;;;;2.00;1.10;;;;;;;27.39;52.44;98535.47;5062548;28;20259;-69
2022/08/01 11:05:35;;;;;;;2.03;1.08;;;;;;;27.13;53.85;98535.06;5054689;28;20025;-69
2022/08/01 11:08:10;;;;;;;13.32;1.30;;;;;;;27.95;53.12;98561.03;5061814;28;20305;-69
2022/08/01 11:10:45;;;;;;;3.65;1.40;;;;;;;28.32;51.81;98553.09;5062378;28;20048;-69
2022/08/01 11:13:11;;;;;;;2.20;1.10;;;;;;;28.11;52.53;98541.53;5058730;28;20213;-69
2022/08/01 11:15:38;;;;;;;4.22;1.20;;;;;;;28.22;51.81;98542.25;5044146;28;20025;-69
2022/08/01 11:18:26;;;;;;;5.07;1.30;;;;;;;29.11;51.15;98564.47;5042986;28;20029;-69
2022/08/01 11:20:58;;;;;;;2.42;1.00;;;;;;;29.80;49.85;98566.81;5042920;28;20076;-69
2022/08/01 11:23:27;;;;;;;3.63;1.10;;;;;;;29.73;47.70;98546.72;5049192;28;20136;-69
2022/08/01 11:25:53;;;;;;;3.25;1.00;;;;;;;29.37;48.93;98542.13;5048106;28;20048;-69
2022/08/01 11:28:23;;;;;;;2.40;1.02;;;;;;;28.97;49.64;98536.94;5062103;28;20048;-69
2022/08/01 11:31:12;;;;;;;2.30;1.00;;;;;;;28.44;50.74;98531.16;5062009;28;20320;-69
2022/08/01 11:33:41;;;;;;;4.00;1.40;;;;;;;28.16;51.14;98529.28;5058773;28;20041;-69
2022/08/01 11:36:12;;;;;;;3.22;1.13;;;;;;;28.04;52.33;98527.72;5042815;28;20264;-69
2022/08/01 11:38:38;;;;;;;2.88;1.17;;;;;;;28.41;52.39;98536.84;5042448;28;20037;-69
2022/08/01 11:41:23;;;;;;;1.80;0.90;;;;;;;28.46;50.39;98529.19;5042820;28;20060;-69